Time;durP1;ratioP1;P1;durP2;ratioP2;P2;SDS_P1;SDS_P2;PMS_P1;PMS_P2;Temp;Humidity;BMP_temperature;BMP_pressure;BME280_temperature;BME280_humidity;BME280_pressure;Samples;Min_cycle;Max_cycle;Signal;HPM_P1;HPM_P2
2023/06/29 00:01:55;;;;;;;23.00;14.57;;;;;;;;;;5082419;28;20208;-71
2023/06/29 00:04:21;;;;;;;21.02;14.40;;;;;;;;;;5086966;28;20199;-71
2023/06/29 00:06:49;;;;;;;19.88;13.82;;;;;;;;;;5087122;28;20188;-71
2023/06/29 00:09:16;;;;;;;21.40;14.02;;;;;;;;;;5083928;28;20735;-71
2023/06/29 00:11:42;;;;;;;22.95;14.52;;;;;;;;;;5088012;28;20275;-71
2023/06/29 00:14:08;;;;;;;19.85;14.15;;;;;;;;;;5075489;28;20319;-72
2023/06/29 00:16:33;;;;;;;21.08;14.45;;;;;;;;;;5086977;28;20221;-71
2023/06/29 00:19:00;;;;;;;20.08;14.00;;;;;;;;;;5089216;28;20222;-71
2023/06/29 00:21:27;;;;;;;24.40;14.90;;;;;;;;;;5076016;28;20276;-71
2023/06/29 00:23:53;;;;;;;24.60;14.73;;;;;;;;;;5086298;28;20199;-71
2023/06/29 00:26:18;;;;;;;17.40;13.40;;;;;;;;;;5074174;28;20180;-71
2023/06/29 00:28:44;;;;;;;22.27;14.73;;;;;;;;;;5073577;28;20684;-71
2023/06/29 00:31:09;;;;;;;26.38;14.90;;;;;;;;;;5081184;28;20203;-71
2023/06/29 00:33:34;;;;;;;23.73;14.02;;;;;;;;;;5084703;28;20192;-71
2023/06/29 00:36:00;;;;;;;20.63;14.05;;;;;;;;;;5081142;28;20303;-71
2023/06/29 00:38:25;;;;;;;22.90;14.80;;;;;;;;;;5074295;28;20208;-71
2023/06/29 00:40:50;;;;;;;25.13;14.27;;;;;;;;;;5078854;28;20567;-71
2023/06/29 00:43:17;;;;;;;21.67;15.30;;;;;;;;;;5077856;28;20636;-70
2023/06/29 00:45:43;;;;;;;20.67;13.90;;;;;;;;;;5071283;28;20264;-71
2023/06/29 00:48:08;;;;;;;22.05;15.00;;;;;;;;;;5088332;28;20287;-71
2023/06/29 00:50:34;;;;;;;29.50;15.25;;;;;;;;;;5091874;28;20207;-71
2023/06/29 00:53:00;;;;;;;21.80;14.75;;;;;;;;;;5077245;28;20188;-70
2023/06/29 00:55:26;;;;;;;24.55;14.30;;;;;;;;;;5091422;28;20619;-70
2023/06/29 00:57:52;;;;;;;25.17;13.82;;;;;;;;;;5077662;28;20188;-71
2023/06/29 01:00:18;;;;;;;23.85;14.63;;;;;;;;;;5072110;28;20196;-71
2023/06/29 01:02:43;;;;;;;30.02;15.55;;;;;;;;;;5077034;28;20669;-71
2023/06/29 01:05:10;;;;;;;26.60;15.20;;;;;;;;;;5080220;28;20545;-71
2023/06/29 01:07:59;;;;;;;22.77;14.07;;;;;;;;;;5082816;28;20192;-71
2023/06/29 01:10:27;;;;;;;22.65;14.90;;;;;;;;;;5081914;28;20655;-72
2023/06/29 01:12:53;;;;;;;25.40;14.60;;;;;;;;;;5080585;28;20180;-72
2023/06/29 01:15:20;;;;;;;19.55;13.98;;;;;;;;;;5090398;28;20275;-71
2023/06/29 01:17:47;;;;;;;19.77;13.88;;;;;;;;;;5086571;28;20257;-71
2023/06/29 01:20:14;;;;;;;21.30;13.85;;;;;;;;;;5073130;28;20234;-72
2023/06/29 01:22:58;;;;;;;21.75;13.90;;;;;;;;;;5089706;28;20200;-72
2023/06/29 01:25:25;;;;;;;22.83;16.13;;;;;;;;;;5086481;28;20599;-72
2023/06/29 01:27:50;;;;;;;27.27;14.88;;;;;;;;;;5076733;28;20536;-72
2023/06/29 01:30:17;;;;;;;21.67;15.40;;;;;;;;;;5081811;28;20272;-72
2023/06/29 01:32:43;;;;;;;20.60;14.68;;;;;;;;;;5083725;28;20294;-72
2023/06/29 01:35:08;;;;;;;23.30;14.57;;;;;;;;;;5076055;28;20304;-72
2023/06/29 01:37:44;;;;;;;26.58;15.77;;;;;;;;;;5084371;28;20241;-73
2023/06/29 01:40:13;;;;;;;26.45;15.43;;;;;;;;;;5090575;28;20234;-71
2023/06/29 01:42:40;;;;;;;21.80;15.02;;;;;;;;;;5088026;28;20564;-71
2023/06/29 01:45:07;;;;;;;23.95;15.07;;;;;;;;;;5089043;28;20191;-70
2023/06/29 01:47:33;;;;;;;27.05;15.00;;;;;;;;;;5073966;28;20627;-71
2023/06/29 01:50:00;;;;;;;27.25;16.05;;;;;;;;;;5081228;28;20193;-71
2023/06/29 01:52:25;;;;;;;24.23;15.93;;;;;;;;;;5083115;28;20611;-71
2023/06/29 01:54:51;;;;;;;27.65;16.05;;;;;;;;;;5089862;28;20252;-72
2023/06/29 01:57:17;;;;;;;26.40;16.27;;;;;;;;;;5081920;28;20643;-71
2023/06/29 01:59:44;;;;;;;23.95;16.17;;;;;;;;;;5079349;28;20199;-71
2023/06/29 02:02:09;;;;;;;27.30;16.48;;;;;;;;;;5080077;28;20215;-72
2023/06/29 02:04:34;;;;;;;29.10;16.50;;;;;;;;;;5079103;28;20196;-71
2023/06/29 02:07:00;;;;;;;23.65;15.05;;;;;;;;;;5078829;28;20215;-71
2023/06/29 02:09:26;;;;;;;23.83;15.25;;;;;;;;;;5085368;28;20184;-71
2023/06/29 02:11:51;;;;;;;24.45;15.82;;;;;;;;;;5074276;28;20208;-71
2023/06/29 02:14:17;;;;;;;23.73;15.05;;;;;;;;;;5081749;28;20189;-71
2023/06/29 02:16:44;;;;;;;21.92;15.27;;;;;;;;;;5071867;28;20667;-71
2023/06/29 02:19:09;;;;;;;22.92;15.45;;;;;;;;;;5087022;28;20477;-71
2023/06/29 02:21:34;;;;;;;22.98;15.93;;;;;;;;;;5081524;28;20198;-71
2023/06/29 02:24:00;;;;;;;24.70;17.05;;;;;;;;;;5080610;28;20847;-71
2023/06/29 02:26:27;;;;;;;24.38;16.38;;;;;;;;;;5079238;28;20275;-71
2023/06/29 02:28:52;;;;;;;23.85;15.30;;;;;;;;;;5082792;28;20857;-71
2023/06/29 02:31:18;;;;;;;22.75;15.27;;;;;;;;;;5080806;28;20192;-71
2023/06/29 02:33:44;;;;;;;28.55;17.98;;;;;;;;;;5081913;28;20189;-71
2023/06/29 02:36:10;;;;;;;23.92;16.38;;;;;;;;;;5088040;28;20346;-71
2023/06/29 02:38:36;;;;;;;27.25;15.48;;;;;;;;;;5075887;28;20242;-72
2023/06/29 02:41:01;;;;;;;17.25;11.40;;;;;;;;;;5087073;28;20759;-71
2023/06/29 02:43:26;;;;;;;25.15;15.70;;;;;;;;;;5081631;28;20601;-71
2023/06/29 02:45:52;;;;;;;25.85;16.70;;;;;;;;;;5079623;28;20474;-71
2023/06/29 02:48:17;;;;;;;23.67;15.32;;;;;;;;;;5083329;28;20192;-71
2023/06/29 02:50:42;;;;;;;23.48;16.17;;;;;;;;;;5071775;28;20212;-71
2023/06/29 02:53:11;;;;;;;29.45;16.42;;;;;;;;;;5081430;28;20700;-71
2023/06/29 02:55:36;;;;;;;28.15;16.95;;;;;;;;;;5084826;28;20699;-71
2023/06/29 02:58:01;;;;;;;25.80;17.13;;;;;;;;;;5069849;28;20299;-71
2023/06/29 03:00:27;;;;;;;24.60;16.75;;;;;;;;;;5087825;28;20804;-71
2023/06/29 03:02:52;;;;;;;27.20;17.83;;;;;;;;;;5075168;28;20192;-71
2023/06/29 03:05:17;;;;;;;24.50;17.65;;;;;;;;;;5072720;28;20277;-71
2023/06/29 03:07:43;;;;;;;26.58;17.73;;;;;;;;;;5082476;28;20616;-71
2023/06/29 03:10:08;;;;;;;30.27;17.42;;;;;;;;;;5088442;28;20275;-71
2023/06/29 03:12:34;;;;;;;22.88;16.42;;;;;;;;;;5075711;28;20192;-71
2023/06/29 03:14:59;;;;;;;32.33;18.38;;;;;;;;;;5076473;28;20184;-71
2023/06/29 03:17:27;;;;;;;27.88;17.52;;;;;;;;;;5078975;28;20215;-71
2023/06/29 03:19:52;;;;;;;24.55;17.63;;;;;;;;;;5087858;28;20301;-71
2023/06/29 03:22:18;;;;;;;23.98;18.30;;;;;;;;;;5067145;28;20195;-71
2023/06/29 03:24:43;;;;;;;29.27;18.55;;;;;;;;;;5087311;28;20203;-72
2023/06/29 03:27:08;;;;;;;26.70;17.88;;;;;;;;;;5078496;28;20693;-71
2023/06/29 03:29:34;;;;;;;25.95;17.27;;;;;;;;;;5084170;28;20199;-71
2023/06/29 03:31:59;;;;;;;21.95;15.88;;;;;;;;;;5077484;28;20188;-71
2023/06/29 03:34:28;;;;;;;26.35;17.52;;;;;;;;;;5074619;28;20271;-71
2023/06/29 03:36:53;;;;;;;25.05;17.13;;;;;;;;;;5063065;28;20216;-71
2023/06/29 03:39:19;;;;;;;28.10;17.48;;;;;;;;;;5085089;28;20675;-71
2023/06/29 03:41:44;;;;;;;29.58;17.17;;;;;;;;;;5075922;28;20235;-71
2023/06/29 03:44:10;;;;;;;27.55;16.60;;;;;;;;;;5076514;28;20193;-71
2023/06/29 03:46:35;;;;;;;22.17;15.98;;;;;;;;;;5088133;28;20263;-71
2023/06/29 03:49:01;;;;;;;25.90;17.38;;;;;;;;;;5079849;28;20184;-71
2023/06/29 03:51:26;;;;;;;25.73;17.35;;;;;;;;;;5085914;28;20284;-71
2023/06/29 03:53:51;;;;;;;27.08;17.75;;;;;;;;;;5084488;28;20693;-71
2023/06/29 03:56:17;;;;;;;22.90;15.60;;;;;;;;;;5088789;28;20208;-72
2023/06/29 03:58:42;;;;;;;28.70;18.15;;;;;;;;;;5089534;28;20199;-71
2023/06/29 04:01:08;;;;;;;26.23;18.10;;;;;;;;;;5085332;28;20622;-71
2023/06/29 04:03:33;;;;;;;22.00;15.93;;;;;;;;;;5074963;28;20196;-71
2023/06/29 04:05:59;;;;;;;23.60;16.90;;;;;;;;;;5084103;28;20208;-71
2023/06/29 04:08:24;;;;;;;32.80;19.05;;;;;;;;;;5087272;28;20188;-71
2023/06/29 04:10:49;;;;;;;28.08;18.00;;;;;;;;;;5076267;28;20773;-71
2023/06/29 04:13:15;;;;;;;25.58;17.63;;;;;;;;;;5080055;28;20195;-71
2023/06/29 04:15:41;;;;;;;22.60;15.45;;;;;;;;;;5085144;28;20643;-71
2023/06/29 04:18:06;;;;;;;26.58;18.65;;;;;;;;;;5086717;28;20180;-71
2023/06/29 04:20:32;;;;;;;25.73;18.35;;;;;;;;;;5080250;28;20192;-71
2023/06/29 04:22:58;;;;;;;23.85;17.25;;;;;;;;;;5077807;28;20188;-71
2023/06/29 04:25:23;;;;;;;26.23;17.05;;;;;;;;;;5083793;28;20191;-70
2023/06/29 04:27:49;;;;;;;26.38;17.55;;;;;;;;;;5092116;28;20192;-71
2023/06/29 04:30:17;;;;;;;25.95;15.15;;;;;;;;;;5081956;28;20359;-71
2023/06/29 04:32:43;;;;;;;26.00;16.63;;;;;;;;;;5075097;28;20325;-71
2023/06/29 04:35:09;;;;;;;26.75;17.50;;;;;;;;;;5076900;28;20271;-70
2023/06/29 04:37:41;;;;;;;25.13;16.27;;;;;;;;;;5076850;28;20188;-70
2023/06/29 04:40:14;;;;;;;24.30;16.13;;;;;;;;;;5075760;28;20236;-71
2023/06/29 04:42:46;;;;;;;27.30;16.25;;;;;;;;;;5087218;28;20721;-71
2023/06/29 04:45:17;;;;;;;28.40;16.35;;;;;;;;;;5077785;28;20219;-71
2023/06/29 04:47:44;;;;;;;23.33;16.10;;;;;;;;;;5071428;28;20188;-71
2023/06/29 04:50:10;;;;;;;25.17;16.08;;;;;;;;;;5075798;28;20485;-71
2023/06/29 04:52:36;;;;;;;27.90;16.48;;;;;;;;;;5088476;28;20185;-71
2023/06/29 04:55:04;;;;;;;23.33;16.15;;;;;;;;;;5091142;28;20262;-71
2023/06/29 04:57:30;;;;;;;25.80;15.63;;;;;;;;;;5087841;28;20683;-70
2023/06/29 04:59:56;;;;;;;26.05;17.35;;;;;;;;;;5079680;28;20190;-71
2023/06/29 05:02:21;;;;;;;25.70;15.60;;;;;;;;;;5073970;28;20204;-70
2023/06/29 05:04:48;;;;;;;32.10;17.55;;;;;;;;;;5080445;28;20196;-70
2023/06/29 05:07:13;;;;;;;28.98;18.58;;;;;;;;;;5079812;28;20664;-71
2023/06/29 05:09:38;;;;;;;26.83;17.42;;;;;;;;;;5070142;28;20213;-70
2023/06/29 05:12:04;;;;;;;27.40;18.65;;;;;;;;;;5083324;28;20569;-70
2023/06/29 05:14:30;;;;;;;29.23;18.15;;;;;;;;;;5085111;28;20343;-71
2023/06/29 05:16:57;;;;;;;24.88;18.25;;;;;;;;;;5074537;28;20216;-70
2023/06/29 05:19:22;;;;;;;31.45;20.00;;;;;;;;;;5075301;28;20652;-70
2023/06/29 05:21:47;;;;;;;30.65;18.92;;;;;;;;;;5076869;28;20197;-70
2023/06/29 05:24:13;;;;;;;27.10;18.17;;;;;;;;;;5082867;28;20215;-70
2023/06/29 05:26:38;;;;;;;30.50;18.85;;;;;;;;;;5079375;28;20184;-70
2023/06/29 05:29:03;;;;;;;29.02;19.70;;;;;;;;;;5081238;28;20480;-71
2023/06/29 05:31:29;;;;;;;32.13;20.58;;;;;;;;;;5078642;28;20197;-71
2023/06/29 05:33:54;;;;;;;29.38;19.55;;;;;;;;;;5078316;28;20188;-72
2023/06/29 05:36:20;;;;;;;31.42;19.42;;;;;;;;;;5077328;28;20311;-72
2023/06/29 05:38:45;;;;;;;27.45;18.25;;;;;;;;;;5071768;28;20197;-72
2023/06/29 05:41:11;;;;;;;28.48;19.45;;;;;;;;;;5080414;28;20315;-71
2023/06/29 05:43:36;;;;;;;30.65;19.98;;;;;;;;;;5085192;28;20184;-70
2023/06/29 05:46:02;;;;;;;27.08;20.05;;;;;;;;;;5088559;28;20180;-70
2023/06/29 05:48:28;;;;;;;28.10;19.83;;;;;;;;;;5080108;28;20180;-70
2023/06/29 05:50:53;;;;;;;30.98;20.08;;;;;;;;;;5082798;28;20606;-71
2023/06/29 05:53:18;;;;;;;35.10;21.00;;;;;;;;;;5086629;28;20192;-71
2023/06/29 05:55:44;;;;;;;28.55;20.02;;;;;;;;;;5079970;28;20239;-71
2023/06/29 05:58:09;;;;;;;29.67;20.77;;;;;;;;;;5082466;28;20565;-70
2023/06/29 06:00:34;;;;;;;31.33;20.35;;;;;;;;;;5081987;28;20299;-71
2023/06/29 06:03:00;;;;;;;29.45;18.40;;;;;;;;;;5092399;28;20196;-71
2023/06/29 06:05:25;;;;;;;31.70;20.30;;;;;;;;;;5088776;28;20221;-71
2023/06/29 06:07:50;;;;;;;31.02;20.30;;;;;;;;;;5079383;28;20195;-70
2023/06/29 06:10:16;;;;;;;32.00;20.52;;;;;;;;;;5072404;28;20203;-70
2023/06/29 06:12:41;;;;;;;30.38;20.00;;;;;;;;;;5085488;28;20196;-71
2023/06/29 06:15:11;;;;;;;28.65;20.27;;;;;;;;;;5082053;28;20235;-71
2023/06/29 06:17:37;;;;;;;31.20;19.60;;;;;;;;;;5075631;28;20223;-70
2023/06/29 06:20:04;;;;;;;30.13;19.20;;;;;;;;;;5071832;28;20641;-71
2023/06/29 06:22:30;;;;;;;33.28;19.30;;;;;;;;;;5088875;28;20596;-71
2023/06/29 06:24:55;;;;;;;27.17;17.85;;;;;;;;;;5086616;28;20244;-71
2023/06/29 06:27:21;;;;;;;30.10;19.67;;;;;;;;;;5083005;28;20660;-71
2023/06/29 06:29:46;;;;;;;32.95;19.52;;;;;;;;;;5085876;28;20241;-71
2023/06/29 06:32:11;;;;;;;22.98;17.80;;;;;;;;;;5084911;28;20940;-71
2023/06/29 06:34:37;;;;;;;31.00;19.75;;;;;;;;;;5083497;28;20192;-71
2023/06/29 06:37:03;;;;;;;33.35;18.85;;;;;;;;;;5080139;28;20204;-71
2023/06/29 06:39:32;;;;;;;28.13;21.17;;;;;;;;;;5080037;28;20189;-71
2023/06/29 06:41:58;;;;;;;29.50;20.00;;;;;;;;;;5079119;28;20634;-71
2023/06/29 06:44:23;;;;;;;30.23;20.55;;;;;;;;;;5086244;28;20267;-71
2023/06/29 06:46:49;;;;;;;28.80;20.40;;;;;;;;;;5081002;28;20197;-72
2023/06/29 06:49:14;;;;;;;29.08;20.23;;;;;;;;;;5072815;28;20238;-71
2023/06/29 06:51:39;;;;;;;32.75;21.52;;;;;;;;;;5083962;28;20643;-70
2023/06/29 06:54:05;;;;;;;31.20;19.95;;;;;;;;;;5074058;28;20212;-70
2023/06/29 06:56:31;;;;;;;29.55;19.55;;;;;;;;;;5069110;28;20281;-70
2023/06/29 06:58:56;;;;;;;29.00;19.40;;;;;;;;;;5082062;28;20307;-71
2023/06/29 07:01:22;;;;;;;28.40;19.45;;;;;;;;;;5069669;28;20208;-71
2023/06/29 07:03:48;;;;;;;28.77;19.27;;;;;;;;;;5084244;28;20419;-70
2023/06/29 07:06:13;;;;;;;26.63;19.35;;;;;;;;;;5070996;28;20196;-70
2023/06/29 07:08:38;;;;;;;28.40;19.48;;;;;;;;;;5072256;28;20267;-70
2023/06/29 07:11:04;;;;;;;37.90;21.10;;;;;;;;;;5076323;28;20190;-70
2023/06/29 07:13:29;;;;;;;30.50;20.38;;;;;;;;;;5080307;28;20640;-70
2023/06/29 07:15:55;;;;;;;27.40;17.80;;;;;;;;;;5076649;28;20236;-70
2023/06/29 07:18:20;;;;;;;31.13;19.85;;;;;;;;;;5084620;28;20184;-70
2023/06/29 07:20:48;;;;;;;30.85;20.77;;;;;;;;;;5085039;28;20210;-70
2023/06/29 07:23:14;;;;;;;32.55;20.05;;;;;;;;;;5085868;28;20217;-72
2023/06/29 07:25:39;;;;;;;31.05;20.67;;;;;;;;;;5082121;28;20180;-71
2023/06/29 07:28:05;;;;;;;28.95;17.50;;;;;;;;;;5073162;28;20268;-71
2023/06/29 07:30:30;;;;;;;24.42;17.77;;;;;;;;;;5081301;28;20238;-71
2023/06/29 07:32:55;;;;;;;33.22;21.10;;;;;;;;;;5087478;28;20201;-71
2023/06/29 07:35:21;;;;;;;30.73;20.67;;;;;;;;;;5079645;28;20285;-71
2023/06/29 07:37:46;;;;;;;35.72;21.45;;;;;;;;;;5072488;28;20188;-71
2023/06/29 07:40:11;;;;;;;31.50;22.30;;;;;;;;;;5077948;28;20500;-72
2023/06/29 07:42:37;;;;;;;32.50;20.35;;;;;;;;;;5077003;28;20185;-72
2023/06/29 07:45:04;;;;;;;30.10;20.55;;;;;;;;;;5085428;28;20283;-71
2023/06/29 07:47:29;;;;;;;28.08;20.40;;;;;;;;;;5086313;28;20180;-70
2023/06/29 07:49:55;;;;;;;32.78;20.88;;;;;;;;;;5070169;28;20188;-70
2023/06/29 07:52:22;;;;;;;28.17;20.63;;;;;;;;;;5079780;28;20192;-70
2023/06/29 07:54:47;;;;;;;27.52;16.95;;;;;;;;;;5079316;28;20192;-70
2023/06/29 07:57:13;;;;;;;38.90;23.23;;;;;;;;;;5083909;28;20234;-69
2023/06/29 07:59:38;;;;;;;34.28;21.00;;;;;;;;;;5069847;28;20195;-70
2023/06/29 08:02:04;;;;;;;37.88;23.27;;;;;;;;;;5085973;28;20215;-70
2023/06/29 08:04:30;;;;;;;33.35;23.33;;;;;;;;;;5082040;28;20207;-70
2023/06/29 08:06:55;;;;;;;34.70;22.63;;;;;;;;;;5079856;28;20275;-70
2023/06/29 08:09:21;;;;;;;34.97;24.17;;;;;;;;;;5075153;28;20192;-70
2023/06/29 08:11:46;;;;;;;33.30;23.30;;;;;;;;;;5074081;28;20197;-70
2023/06/29 08:14:11;;;;;;;36.95;23.73;;;;;;;;;;5076927;28;20796;-70
2023/06/29 08:16:37;;;;;;;36.78;25.25;;;;;;;;;;5076262;28;20219;-70
2023/06/29 08:19:02;;;;;;;35.33;25.55;;;;;;;;;;5071659;28;20201;-71
2023/06/29 08:21:27;;;;;;;35.83;23.35;;;;;;;;;;5079013;28;20203;-70
2023/06/29 08:23:53;;;;;;;34.03;25.38;;;;;;;;;;5076279;28;20552;-70
2023/06/29 08:26:19;;;;;;;42.28;23.95;;;;;;;;;;5078882;28;20215;-70
2023/06/29 08:28:44;;;;;;;32.28;23.05;;;;;;;;;;5078596;28;20184;-69
2023/06/29 08:31:10;;;;;;;36.58;23.38;;;;;;;;;;5082311;28;20604;-70
2023/06/29 08:33:35;;;;;;;35.25;24.90;;;;;;;;;;5081438;28;20200;-71
2023/06/29 08:36:01;;;;;;;32.30;23.02;;;;;;;;;;5070810;28;20227;-70
2023/06/29 08:38:26;;;;;;;30.13;22.90;;;;;;;;;;5089940;28;20188;-71
2023/06/29 08:40:51;;;;;;;34.03;24.75;;;;;;;;;;5088634;28;20605;-69
2023/06/29 08:43:18;;;;;;;32.53;24.38;;;;;;;;;;5091256;28;20283;-71
2023/06/29 08:45:45;;;;;;;36.92;24.65;;;;;;;;;;5088716;28;20188;-71
2023/06/29 08:48:12;;;;;;;35.03;24.45;;;;;;;;;;5091776;28;20662;-70
2023/06/29 08:50:41;;;;;;;34.15;24.40;;;;;;;;;;5089631;28;20248;-70
2023/06/29 08:53:07;;;;;;;35.90;24.65;;;;;;;;;;5082279;28;20711;-70
2023/06/29 08:55:33;;;;;;;35.42;23.92;;;;;;;;;;5077459;28;20276;-70
2023/06/29 08:57:58;;;;;;;35.88;24.83;;;;;;;;;;5075750;28;20197;-71
2023/06/29 09:00:25;;;;;;;36.50;24.08;;;;;;;;;;5070867;28;20268;-71
2023/06/29 09:02:52;;;;;;;33.05;24.85;;;;;;;;;;5082746;28;20185;-70
2023/06/29 09:05:17;;;;;;;35.47;25.10;;;;;;;;;;5082480;28;20185;-71
2023/06/29 09:07:43;;;;;;;36.22;24.45;;;;;;;;;;5077091;28;20267;-71
2023/06/29 09:10:10;;;;;;;34.25;25.48;;;;;;;;;;5081236;28;20192;-71
2023/06/29 09:12:36;;;;;;;36.13;24.27;;;;;;;;;;5088569;28;20199;-71
2023/06/29 09:15:07;;;;;;;38.63;25.55;;;;;;;;;;5074361;28;20227;-71
2023/06/29 09:17:33;;;;;;;36.85;24.90;;;;;;;;;;5081600;28;20204;-71
2023/06/29 09:20:00;;;;;;;34.28;24.17;;;;;;;;;;5083871;28;20219;-70
2023/06/29 09:22:27;;;;;;;34.00;23.65;;;;;;;;;;5080162;28;20203;-68
2023/06/29 09:24:57;;;;;;;32.92;24.85;;;;;;;;;;5081232;28;20215;-71
2023/06/29 09:27:22;;;;;;;36.00;23.20;;;;;;;;;;5082203;28;20188;-70
2023/06/29 09:29:52;;;;;;;34.17;24.05;;;;;;;;;;5077454;28;20239;-68
2023/06/29 09:32:17;;;;;;;34.92;24.80;;;;;;;;;;5070172;28;20571;-71
2023/06/29 09:34:47;;;;;;;32.72;22.83;;;;;;;;;;5079409;28;20265;-71
2023/06/29 09:37:16;;;;;;;34.55;25.27;;;;;;;;;;5076472;28;20211;-71
2023/06/29 09:39:58;;;;;;;32.65;23.23;;;;;;;;;;5082455;28;20645;-71
2023/06/29 09:42:26;;;;;;;31.08;21.92;;;;;;;;;;5073417;28;20294;-69
2023/06/29 09:44:52;;;;;;;31.05;22.63;;;;;;;;;;5089880;28;20215;-71
2023/06/29 09:47:19;;;;;;;32.28;22.48;;;;;;;;;;5088253;28;20224;-71
2023/06/29 09:49:48;;;;;;;33.17;22.75;;;;;;;;;;5078437;28;20180;-72
2023/06/29 09:52:15;;;;;;;31.90;22.17;;;;;;;;;;5083226;28;20196;-70
2023/06/29 09:54:41;;;;;;;28.38;22.05;;;;;;;;;;5084376;28;20245;-71
2023/06/29 09:57:13;;;;;;;35.83;24.00;;;;;;;;;;5087454;28;20204;-71
2023/06/29 09:59:40;;;;;;;31.88;23.25;;;;;;;;;;5074232;28;20195;-71
2023/06/29 10:02:07;;;;;;;34.70;23.90;;;;;;;;;;5089688;28;20725;-71
2023/06/29 10:04:32;;;;;;;32.95;24.52;;;;;;;;;;5087298;28;20211;-71
2023/06/29 10:07:31;;;;;;;36.45;25.33;;;;;;;;;;5089907;28;20220;-71
2023/06/29 10:09:57;;;;;;;41.88;26.65;;;;;;;;;;5059594;28;20307;-71
2023/06/29 10:12:26;;;;;;;37.38;26.42;;;;;;;;;;5089394;28;20195;-71
2023/06/29 10:14:55;;;;;;;36.03;25.38;;;;;;;;;;5071220;28;20177;-71
2023/06/29 10:17:34;;;;;;;38.95;27.38;;;;;;;;;;5080164;28;20223;-71
2023/06/29 10:20:03;;;;;;;41.80;28.73;;;;;;;;;;5075614;28;20640;-71
2023/06/29 10:22:29;;;;;;;39.03;27.35;;;;;;;;;;5072478;28;20189;-71
2023/06/29 10:24:58;;;;;;;34.38;25.98;;;;;;;;;;5068966;28;20192;-71
2023/06/29 10:27:29;;;;;;;33.05;23.83;;;;;;;;;;5072394;28;20195;-69
2023/06/29 10:29:54;;;;;;;38.90;26.70;;;;;;;;;;5069421;28;20619;-70
2023/06/29 10:32:34;;;;;;;37.80;27.55;;;;;;;;;;5081279;28;20222;-71
2023/06/29 10:35:11;;;;;;;37.75;26.65;;;;;;;;;;5067168;28;20263;-71
2023/06/29 10:37:48;;;;;;;37.00;25.42;;;;;;;;;;5073644;28;20668;-73
2023/06/29 10:40:18;;;;;;;41.65;26.15;;;;;;;;;;5070723;28;20620;-72
2023/06/29 10:42:48;;;;;;;41.55;26.98;;;;;;;;;;5081990;28;20192;-72
2023/06/29 10:45:19;;;;;;;37.28;26.42;;;;;;;;;;5077045;28;20555;-72
2023/06/29 10:47:56;;;;;;;34.78;25.42;;;;;;;;;;5085669;28;20284;-70
2023/06/29 10:50:24;;;;;;;37.85;24.23;;;;;;;;;;5085698;28;20547;-71
2023/06/29 10:52:50;;;;;;;34.28;24.33;;;;;;;;;;5087419;28;20267;-71
2023/06/29 10:55:17;;;;;;;31.25;22.80;;;;;;;;;;5088319;28;20184;-72
2023/06/29 10:58:00;;;;;;;26.60;20.83;;;;;;;;;;5078237;28;20207;-71
2023/06/29 11:00:26;;;;;;;30.75;22.38;;;;;;;;;;5078056;28;20188;-72
2023/06/29 11:02:53;;;;;;;32.50;21.08;;;;;;;;;;5073371;28;20199;-72
2023/06/29 11:05:21;;;;;;;28.35;21.52;;;;;;;;;;5080837;28;20593;-71
2023/06/29 11:07:51;;;;;;;28.95;21.80;;;;;;;;;;5083927;28;20194;-69
2023/06/29 11:10:21;;;;;;;31.45;23.83;;;;;;;;;;5086911;28;20868;-72
2023/06/29 11:12:49;;;;;;;30.83;23.35;;;;;;;;;;5074003;28;20257;-72
2023/06/29 11:15:16;;;;;;;34.00;22.42;;;;;;;;;;5075362;28;20631;-72
2023/06/29 11:17:42;;;;;;;31.25;22.65;;;;;;;;;;5076971;28;20213;-72
2023/06/29 11:20:16;;;;;;;30.38;21.98;;;;;;;;;;5084071;28;20185;-73
2023/06/29 11:22:43;;;;;;;34.25;22.38;;;;;;;;;;5082013;28;20846;-71
2023/06/29 11:25:14;;;;;;;30.55;20.83;;;;;;;;;;5081761;28;20184;-73
2023/06/29 11:27:40;;;;;;;28.52;20.55;;;;;;;;;;5081324;28;20237;-72
2023/06/29 11:30:09;;;;;;;27.48;20.77;;;;;;;;;;5084475;28;20251;-70
2023/06/29 11:32:34;;;;;;;28.02;19.55;;;;;;;;;;5073301;28;20272;-72
2023/06/29 11:35:01;;;;;;;24.48;18.90;;;;;;;;;;5076604;28;20279;-72
2023/06/29 11:37:27;;;;;;;27.10;19.40;;;;;;;;;;5083244;28;20242;-71
2023/06/29 11:39:53;;;;;;;23.88;18.67;;;;;;;;;;5082829;28;20600;-72
2023/06/29 11:42:21;;;;;;;24.52;18.92;;;;;;;;;;5084999;28;20551;-71
2023/06/29 11:44:48;;;;;;;24.20;17.60;;;;;;;;;;5074274;28;20648;-73
2023/06/29 11:47:14;;;;;;;23.75;18.02;;;;;;;;;;5085990;28;20188;-72
2023/06/29 11:49:40;;;;;;;24.20;18.20;;;;;;;;;;5087123;28;20239;-71
2023/06/29 11:52:06;;;;;;;25.58;18.80;;;;;;;;;;5082532;28;20184;-71
2023/06/29 11:54:32;;;;;;;25.77;19.92;;;;;;;;;;5085447;28;20552;-72
2023/06/29 11:56:58;;;;;;;23.58;18.30;;;;;;;;;;5077951;28;20240;-72
2023/06/29 11:59:24;;;;;;;25.38;18.27;;;;;;;;;;5084174;28;20188;-72
2023/06/29 12:01:51;;;;;;;27.08;18.80;;;;;;;;;;5078609;28;20694;-72
2023/06/29 12:04:16;;;;;;;25.48;18.63;;;;;;;;;;5079586;28;20659;-73
2023/06/29 12:06:51;;;;;;;25.95;18.77;;;;;;;;;;5084151;28;20198;-72
2023/06/29 12:09:17;;;;;;;27.33;18.70;;;;;;;;;;5079125;28;20248;-71
2023/06/29 12:11:42;;;;;;;24.45;19.52;;;;;;;;;;5075217;28;20200;-71
2023/06/29 12:14:09;;;;;;;29.38;18.58;;;;;;;;;;5089763;28;20188;-72
2023/06/29 12:16:41;;;;;;;28.38;20.58;;;;;;;;;;5091323;28;20196;-73
2023/06/29 12:19:13;;;;;;;27.05;18.90;;;;;;;;;;5085634;28;20193;-72
2023/06/29 12:21:40;;;;;;;28.15;20.15;;;;;;;;;;5079888;28;20195;-67
2023/06/29 12:24:05;;;;;;;23.52;18.13;;;;;;;;;;5084724;28;20188;-72
2023/06/29 12:26:31;;;;;;;23.75;17.80;;;;;;;;;;5091122;28;20179;-71
2023/06/29 12:28:57;;;;;;;21.48;16.85;;;;;;;;;;5089403;28;20532;-70
2023/06/29 12:31:29;;;;;;;23.25;17.35;;;;;;;;;;5081423;28;20192;-72
2023/06/29 12:33:55;;;;;;;21.60;16.35;;;;;;;;;;5082894;28;20191;-71
2023/06/29 12:36:21;;;;;;;21.05;15.30;;;;;;;;;;5072697;28;20218;-70
2023/06/29 12:38:48;;;;;;;19.60;13.68;;;;;;;;;;4378363;28;10000725;-73
2023/06/29 12:41:13;;;;;;;20.50;14.65;;;;;;;;;;5076154;28;20237;-72
2023/06/29 12:43:39;;;;;;;23.17;14.73;;;;;;;;;;5085096;28;21050;-72
2023/06/29 12:46:04;;;;;;;21.80;15.25;;;;;;;;;;5069740;28;20177;-70
2023/06/29 12:48:29;;;;;;;21.80;15.90;;;;;;;;;;5079383;28;20200;-72
2023/06/29 12:50:59;;;;;;;22.30;16.60;;;;;;;;;;5087559;28;20207;-73
2023/06/29 12:53:29;;;;;;;25.33;17.25;;;;;;;;;;5082933;28;20188;-68
2023/06/29 12:55:54;;;;;;;23.25;17.08;;;;;;;;;;5086169;28;20220;-69
2023/06/29 12:58:20;;;;;;;23.08;17.10;;;;;;;;;;5087929;28;20245;-72
2023/06/29 13:00:45;;;;;;;28.95;18.40;;;;;;;;;;5084002;28;20219;-71
2023/06/29 13:03:14;;;;;;;24.92;18.67;;;;;;;;;;5084807;28;20199;-72
2023/06/29 13:05:43;;;;;;;26.10;18.73;;;;;;;;;;5077348;28;20255;-72
2023/06/29 13:08:09;;;;;;;26.02;18.35;;;;;;;;;;5081567;28;20192;-72
2023/06/29 13:10:35;;;;;;;27.40;19.13;;;;;;;;;;5077859;28;20609;-72
2023/06/29 13:13:01;;;;;;;27.55;19.95;;;;;;;;;;5083365;28;20184;-71
2023/06/29 13:15:27;;;;;;;24.48;17.92;;;;;;;;;;5067613;28;20192;-72
2023/06/29 13:17:52;;;;;;;26.92;18.65;;;;;;;;;;5070757;28;20222;-72
2023/06/29 13:20:18;;;;;;;23.58;17.92;;;;;;;;;;5075060;28;20200;-72
2023/06/29 13:22:44;;;;;;;21.58;17.77;;;;;;;;;;5075723;28;20198;-68
2023/06/29 13:25:10;;;;;;;30.58;17.75;;;;;;;;;;5083299;28;20184;-71
2023/06/29 13:27:37;;;;;;;24.50;18.50;;;;;;;;;;5086859;28;20270;-72
2023/06/29 13:30:04;;;;;;;22.65;16.08;;;;;;;;;;5075712;28;20231;-71
2023/06/29 13:32:29;;;;;;;20.92;16.88;;;;;;;;;;5080913;28;20576;-72
2023/06/29 13:34:55;;;;;;;23.85;18.00;;;;;;;;;;5078297;28;20197;-70
2023/06/29 13:37:22;;;;;;;22.65;17.08;;;;;;;;;;5086786;28;20204;-71
2023/06/29 13:39:47;;;;;;;23.95;16.75;;;;;;;;;;5080273;28;20195;-72
2023/06/29 13:42:15;;;;;;;23.10;17.25;;;;;;;;;;5081206;28;20604;-69
2023/06/29 13:44:44;;;;;;;21.85;17.38;;;;;;;;;;5079831;28;20191;-73
2023/06/29 13:47:16;;;;;;;26.10;17.75;;;;;;;;;;5084914;28;20578;-73
2023/06/29 13:49:42;;;;;;;23.20;17.02;;;;;;;;;;5074172;28;20203;-72
2023/06/29 13:52:07;;;;;;;24.73;18.08;;;;;;;;;;5078975;28;20196;-73
2023/06/29 13:54:33;;;;;;;21.67;17.45;;;;;;;;;;5083123;28;20196;-72
2023/06/29 13:56:59;;;;;;;23.95;17.65;;;;;;;;;;5086209;28;20262;-73
2023/06/29 13:59:24;;;;;;;24.25;17.83;;;;;;;;;;5085643;28;20220;-72
2023/06/29 14:01:49;;;;;;;21.52;17.48;;;;;;;;;;5080277;28;20435;-71
2023/06/29 14:04:16;;;;;;;23.73;18.60;;;;;;;;;;5083973;28;20192;-70
2023/06/29 14:06:42;;;;;;;21.55;16.75;;;;;;;;;;5078623;28;20555;-69
2023/06/29 14:09:09;;;;;;;26.73;19.10;;;;;;;;;;5077112;28;20656;-68
2023/06/29 14:11:35;;;;;;;25.58;19.30;;;;;;;;;;5068086;28;20851;-70
2023/06/29 14:14:00;;;;;;;30.40;21.20;;;;;;;;;;5077855;28;20234;-71